createdAt,value
2018-12-14T00:01:15.270Z,81.32
2018-12-14T00:06:20.949Z,81.09
2018-12-14T00:11:25.379Z,81.14
2018-12-14T00:16:30.543Z,80.96
2018-12-14T00:21:36.435Z,81.46
2018-12-14T00:26:41.188Z,81.21
2018-12-14T00:37:07.125Z,80.25
2018-12-14T00:47:32.603Z,80.58
2018-12-14T00:52:38.030Z,80.87
2018-12-14T00:57:44.107Z,80.41
2018-12-14T01:02:49.510Z,80.15
2018-12-14T01:07:54.381Z,80.10
2018-12-14T01:13:01.039Z,81.31
2018-12-14T01:23:32.796Z,79.98
2018-12-14T01:28:38.526Z,79.69
2018-12-14T01:33:44.654Z,79.48
2018-12-14T01:38:49.562Z,79.51
2018-12-14T01:43:55.276Z,79.89
2018-12-14T01:49:02.001Z,79.06
2018-12-14T01:54:07.100Z,79.60
2018-12-14T01:59:17.207Z,79.14
2018-12-14T02:04:26.081Z,78.98
2018-12-14T02:09:33.065Z,78.03
2018-12-14T02:14:37.831Z,77.92
2018-12-14T02:25:14.866Z,78.85
2018-12-14T02:30:36.015Z,78.74
2018-12-14T02:35:40.774Z,79.22
2018-12-14T02:40:45.519Z,78.99
2018-12-14T02:45:50.532Z,78.81
2018-12-14T02:50:55.763Z,79.20
2018-12-14T02:56:00.449Z,79.56
2018-12-14T03:01:05.768Z,79.40
2018-12-14T03:06:09.947Z,78.95
2018-12-14T03:11:14.968Z,79.54
2018-12-14T03:16:19.808Z,79.02
2018-12-14T03:21:24.914Z,79.39
2018-12-14T03:26:30.200Z,79.78
2018-12-14T03:31:35.208Z,79.43
2018-12-14T03:42:05.818Z,79.43
2018-12-14T03:47:10.500Z,79.95
2018-12-14T03:52:16.015Z,79.52
2018-12-14T03:57:20.850Z,79.68
2018-12-14T04:02:25.999Z,79.60
2018-12-14T04:07:31.259Z,79.76
2018-12-14T04:12:41.585Z,79.75
2018-12-14T04:17:43.262Z,80.58
2018-12-14T04:22:48.067Z,80.53
2018-12-14T04:27:53.087Z,80.72
2018-12-14T04:38:20.523Z,79.90
2018-12-14T04:43:25.023Z,80.48
2018-12-14T04:48:30.256Z,80.31
2018-12-14T04:53:37.135Z,79.55
2018-12-14T04:58:44.221Z,79.19
2018-12-14T05:03:56.508Z,79.02
2018-12-14T05:09:03.413Z,79.38
2018-12-14T05:14:10.451Z,79.67
2018-12-14T05:24:35.405Z,78.88
2018-12-14T05:29:41.731Z,79.41
2018-12-14T05:34:46.487Z,79.00
2018-12-14T05:39:53.225Z,78.32
2018-12-14T05:44:58.353Z,78.16
2018-12-14T05:55:30.316Z,77.73
2018-12-14T06:00:35.326Z,77.45
2018-12-14T06:05:41.408Z,77.03
2018-12-14T06:10:46.718Z,77.18
2018-12-14T06:15:51.959Z,76.71
2018-12-14T06:20:57.312Z,76.53
2018-12-14T06:26:02.942Z,76.60
2018-12-14T06:31:07.880Z,77.04
2018-12-14T06:36:12.805Z,77.63
2018-12-14T06:41:18.008Z,76.85
2018-12-14T06:46:22.667Z,77.21
2018-12-14T06:56:56.880Z,77.13
2018-12-14T07:02:02.816Z,77.13
2018-12-14T07:07:09.764Z,77.37
2018-12-14T07:12:14.908Z,77.32
2018-12-14T07:17:20.835Z,78.24
2018-12-14T07:22:25.709Z,77.03
2018-12-14T07:27:31.217Z,77.09
2018-12-14T07:32:38.067Z,76.28
2018-12-14T07:37:42.766Z,76.61
2018-12-14T07:42:47.877Z,75.85
2018-12-14T07:47:53.845Z,75.82
2018-12-14T07:53:00.025Z,75.71
2018-12-14T07:58:04.868Z,76.38
2018-12-14T08:03:10.007Z,76.45
2018-12-14T08:13:41.084Z,76.96
2018-12-14T08:18:45.332Z,77.40
2018-12-14T08:23:50.285Z,76.93
2018-12-14T08:28:55.183Z,76.76
2018-12-14T08:34:00.405Z,76.10
2018-12-14T08:39:07.160Z,76.24
2018-12-14T08:44:11.992Z,76.94
2018-12-14T08:49:16.374Z,76.55
2018-12-14T08:54:21.795Z,76.45
2018-12-14T08:59:28.371Z,76.44
2018-12-14T09:09:55.105Z,75.20
2018-12-14T09:14:59.922Z,75.69
2018-12-14T09:20:05.425Z,75.17
2018-12-14T09:25:11.473Z,74.67
2018-12-14T09:30:16.863Z,74.29
2018-12-14T09:35:25.348Z,73.20
2018-12-14T09:40:33.346Z,72.75
2018-12-14T09:45:41.420Z,73.00
2018-12-14T09:50:46.148Z,72.36
2018-12-14T09:55:51.163Z,72.19
2018-12-14T10:00:56.848Z,71.76
2018-12-14T10:06:01.889Z,71.68
2018-12-14T10:11:07.369Z,71.67
2018-12-14T10:16:14.130Z,71.92
2018-12-14T10:21:19.308Z,72.31
2018-12-14T10:26:24.281Z,70.99
2018-12-14T10:31:29.811Z,70.89
2018-12-14T10:36:34.267Z,71.25
2018-12-14T10:41:39.648Z,70.13
2018-12-14T10:46:45.221Z,68.83
2018-12-14T10:51:53.060Z,68.93
2018-12-14T10:56:58.359Z,68.04
2018-12-14T11:02:03.176Z,67.00
2018-12-14T11:07:08.534Z,67.34
2018-12-14T11:12:14.189Z,66.81
2018-12-14T11:17:19.494Z,66.68
2018-12-14T11:22:24.635Z,66.64
2018-12-14T11:27:29.864Z,66.75
2018-12-14T11:32:34.938Z,65.12
2018-12-14T11:37:40.227Z,64.62
2018-12-14T11:48:05.066Z,64.59
2018-12-14T11:53:13.215Z,64.32
2018-12-14T11:58:18.474Z,64.50
2018-12-14T12:03:23.717Z,65.02
2018-12-14T12:08:29.944Z,64.16
2018-12-14T12:13:35.283Z,63.79
2018-12-14T12:18:41.054Z,62.59
2018-12-14T12:23:46.535Z,62.30
2018-12-14T12:28:52.922Z,62.28
2018-12-14T12:33:57.790Z,62.23
2018-12-14T12:39:05.837Z,62.31
2018-12-14T12:44:10.817Z,61.71
2018-12-14T12:49:15.201Z,61.71
2018-12-14T12:54:20.159Z,60.33
2018-12-14T12:59:25.941Z,60.65
2018-12-14T13:04:30.305Z,61.02
2018-12-14T13:09:34.853Z,61.93
2018-12-14T13:14:40.176Z,62.01
2018-12-14T13:19:45.433Z,61.83
2018-12-14T13:24:49.802Z,61.83
2018-12-14T13:35:17.142Z,63.18
2018-12-14T13:40:21.895Z,63.23
2018-12-14T13:45:26.801Z,63.68
2018-12-14T13:50:32.556Z,64.57
2018-12-14T14:00:41.685Z,65.25
2018-12-14T14:05:46.906Z,65.94
2018-12-14T14:10:51.882Z,66.20
2018-12-14T14:15:57.282Z,66.12
2018-12-14T14:21:02.330Z,66.14
2018-12-14T14:26:07.984Z,66.44
2018-12-14T14:31:12.943Z,66.53
2018-12-14T14:36:25.683Z,66.07
2018-12-14T14:41:31.305Z,66.06
2018-12-14T14:46:36.199Z,66.21
2018-12-14T14:51:42.588Z,66.63
2018-12-14T14:56:47.804Z,66.41
2018-12-14T15:01:53.569Z,66.98
2018-12-14T15:06:58.429Z,67.63
2018-12-14T15:12:03.155Z,67.93
2018-12-14T15:17:09.212Z,68.23
2018-12-14T15:22:14.098Z,68.81
2018-12-14T15:27:20.774Z,68.13
2018-12-14T15:32:25.700Z,68.23
2018-12-14T15:37:30.381Z,68.66
2018-12-14T15:42:35.244Z,69.05
2018-12-14T15:47:40.150Z,68.93
2018-12-14T15:52:45.316Z,68.94
2018-12-14T15:57:50.827Z,69.50
2018-12-14T16:02:56.415Z,70.32
2018-12-14T16:08:01.177Z,71.03
2018-12-14T16:13:07.496Z,70.67
2018-12-14T16:18:12.585Z,70.91
2018-12-14T16:23:18.045Z,71.06
2018-12-14T16:28:23.711Z,71.34
2018-12-14T16:33:28.532Z,71.53
2018-12-14T16:38:33.644Z,72.14
2018-12-14T16:43:38.295Z,71.88
2018-12-14T16:48:42.955Z,72.25
2018-12-14T16:53:52.842Z,72.35
2018-12-14T16:58:58.362Z,72.65
2018-12-14T17:04:03.091Z,72.49
2018-12-14T17:09:07.911Z,72.02
2018-12-14T17:14:13.268Z,73.10
2018-12-14T17:24:44.999Z,73.35
2018-12-14T17:29:49.686Z,72.74
2018-12-14T17:34:54.962Z,73.51
2018-12-14T17:40:00.335Z,73.62
2018-12-14T17:45:05.758Z,73.22
2018-12-14T17:50:11.722Z,72.87
2018-12-14T17:55:17.195Z,72.89
2018-12-14T18:00:22.233Z,73.46
2018-12-14T18:05:27.179Z,73.42
2018-12-14T18:15:52.236Z,72.53
2018-12-14T18:26:17.282Z,72.46
2018-12-14T18:36:56.479Z,73.17
2018-12-14T18:42:02.152Z,72.88
2018-12-14T18:47:07.679Z,72.49
2018-12-14T18:52:12.631Z,72.89
2018-12-14T18:57:17.834Z,73.13
2018-12-14T19:02:23.278Z,72.87
2018-12-14T19:07:28.174Z,72.30
2018-12-14T19:12:34.246Z,72.75
2018-12-14T19:17:40.505Z,72.31
2018-12-14T19:22:45.640Z,72.02
2018-12-14T19:33:24.562Z,72.52
2018-12-14T19:39:08.734Z,72.01
2018-12-14T19:44:16.277Z,72.28
2018-12-14T19:49:23.685Z,72.04
2018-12-14T19:54:29.168Z,72.59
2018-12-14T19:59:36.308Z,72.23
2018-12-14T20:04:41.434Z,71.99
2018-12-14T20:09:46.945Z,72.22
2018-12-14T20:21:08.507Z,72.80
2018-12-14T20:26:12.797Z,72.09
2018-12-14T20:31:18.021Z,72.16
2018-12-14T20:36:22.738Z,72.58
2018-12-14T20:41:27.516Z,72.80
2018-12-14T20:46:32.354Z,72.79
2018-12-14T20:51:37.640Z,72.68
2018-12-14T20:56:42.330Z,72.62
2018-12-14T21:01:47.658Z,72.89
2018-12-14T21:06:52.408Z,73.02
2018-12-14T21:11:57.137Z,73.11
2018-12-14T21:17:03.077Z,72.64
2018-12-14T21:22:13.345Z,72.64
2018-12-14T21:27:18.400Z,72.61
2018-12-14T21:32:23.318Z,72.67
2018-12-14T21:42:58.434Z,72.43
2018-12-14T21:48:17.346Z,72.37
2018-12-14T21:59:01.582Z,72.44
2018-12-14T22:04:06.202Z,72.79
2018-12-14T22:09:10.980Z,72.33
2018-12-14T22:14:15.080Z,72.66
2018-12-14T22:19:20.581Z,72.93
2018-12-14T22:24:26.120Z,73.13
2018-12-14T22:29:30.813Z,72.61
2018-12-14T22:34:35.047Z,73.61
2018-12-14T22:39:40.227Z,73.58
2018-12-14T22:44:45.305Z,73.11
2018-12-14T22:49:49.772Z,73.13
2018-12-14T22:54:54.406Z,73.73
2018-12-14T23:00:00.071Z,73.27
2018-12-14T23:05:04.633Z,73.37
2018-12-14T23:10:10.425Z,73.27
2018-12-14T23:15:15.636Z,73.90
2018-12-14T23:20:19.966Z,73.29
2018-12-14T23:25:26.132Z,73.65
2018-12-14T23:30:30.471Z,73.50
2018-12-14T23:35:34.682Z,73.30
2018-12-14T23:40:41.777Z,73.21
2018-12-14T23:45:47.217Z,73.16
2018-12-14T23:50:52.623Z,73.14
2018-12-14T23:55:58.910Z,73.90
